createdAt,value
2018-04-17T00:02:17.009Z,7.97
2018-04-17T00:04:45.434Z,8.63
2018-04-17T00:07:13.068Z,9.33
2018-04-17T00:09:40.701Z,9.40
2018-04-17T00:12:09.060Z,10.87
2018-04-17T00:14:36.712Z,8.80
2018-04-17T00:17:04.434Z,8.17
2018-04-17T00:19:32.073Z,10.20
2018-04-17T00:21:59.742Z,10.27
2018-04-17T00:24:28.169Z,8.47
2018-04-17T00:26:55.796Z,9.00
2018-04-17T00:29:23.401Z,8.93
2018-04-17T00:31:51.085Z,8.50
2018-04-17T00:34:18.738Z,8.17
2018-04-17T00:36:46.374Z,8.93
2018-04-17T00:39:14.001Z,8.30
2018-04-17T00:41:41.621Z,8.90
2018-04-17T00:44:09.308Z,9.33
2018-04-17T00:46:36.917Z,9.00
2018-04-17T00:49:04.562Z,9.60
2018-04-17T00:51:32.202Z,8.53
2018-04-17T00:54:03.301Z,8.97
2018-04-17T00:56:30.973Z,9.30
2018-04-17T00:58:58.597Z,9.17
2018-04-17T01:01:26.281Z,9.87
2018-04-17T01:03:53.924Z,10.07
2018-04-17T01:06:22.369Z,11.93
2018-04-17T01:08:50.062Z,10.50
2018-04-17T01:11:17.738Z,10.43
2018-04-17T01:13:45.362Z,9.23
2018-04-17T01:16:13.731Z,10.33
2018-04-17T01:18:41.441Z,9.40
2018-04-17T01:21:09.078Z,10.03
2018-04-17T01:23:36.696Z,9.63
2018-04-17T01:26:04.369Z,10.23
2018-04-17T01:28:32.010Z,11.03
2018-04-17T01:30:59.669Z,11.40
2018-04-17T01:33:27.312Z,12.13
2018-04-17T01:35:55.021Z,10.27
2018-04-17T01:38:22.675Z,9.20
2018-04-17T01:40:51.092Z,10.83
2018-04-17T01:43:18.745Z,11.00
2018-04-17T01:45:46.370Z,11.40
2018-04-17T01:48:14.030Z,11.90
2018-04-17T01:50:41.629Z,11.00
2018-04-17T01:53:10.085Z,13.33
2018-04-17T01:55:37.749Z,12.67
2018-04-17T01:58:05.449Z,12.57
2018-04-17T02:00:33.117Z,13.03
2018-04-17T02:03:00.744Z,13.13
2018-04-17T02:05:28.402Z,13.33
2018-04-17T02:07:56.014Z,12.37
2018-04-17T02:10:23.665Z,11.87
2018-04-17T02:12:51.313Z,11.47
2018-04-17T02:15:18.974Z,11.40
2018-04-17T02:17:46.639Z,11.47
2018-04-17T02:20:14.330Z,13.40
2018-04-17T02:22:41.948Z,12.33
2018-04-17T02:25:09.640Z,12.40
2018-04-17T02:27:37.278Z,12.87
2018-04-17T02:30:04.969Z,12.57
2018-04-17T02:35:25.414Z,12.40
2018-04-17T02:37:53.665Z,10.87
2018-04-17T02:40:21.330Z,10.10
2018-04-17T02:42:48.995Z,11.00
2018-04-17T02:45:16.639Z,11.37
2018-04-17T02:47:44.285Z,12.40
2018-04-17T02:50:11.913Z,11.10
2018-04-17T02:52:40.331Z,10.50
2018-04-17T02:55:08.773Z,10.10
2018-04-17T02:57:36.427Z,10.57
2018-04-17T03:00:04.893Z,10.37
2018-04-17T03:02:32.495Z,11.10
2018-04-17T03:05:00.183Z,10.87
2018-04-17T03:07:27.813Z,10.50
2018-04-17T03:09:55.500Z,11.13
2018-04-17T03:12:23.128Z,10.87
2018-04-17T03:14:50.833Z,10.87
2018-04-17T03:17:19.053Z,11.23
2018-04-17T03:19:47.480Z,11.73
2018-04-17T03:22:15.153Z,10.83
2018-04-17T03:24:43.583Z,10.80
2018-04-17T03:27:11.276Z,11.53
2018-04-17T03:29:38.892Z,11.83
2018-04-17T03:32:06.570Z,12.70
2018-04-17T03:34:34.266Z,13.33
2018-04-17T03:37:02.435Z,12.70
2018-04-17T03:39:30.066Z,13.20
2018-04-17T03:41:57.701Z,15.20
2018-04-17T03:44:25.369Z,13.87
2018-04-17T03:46:53.805Z,12.10
2018-04-17T03:49:21.495Z,13.87
2018-04-17T03:51:49.133Z,12.13
2018-04-17T03:54:16.778Z,11.73
2018-04-17T03:56:44.405Z,11.50
2018-04-17T03:59:12.067Z,11.90
2018-04-17T04:01:39.693Z,11.80
2018-04-17T04:04:08.147Z,11.70
2018-04-17T04:06:35.790Z,11.37
2018-04-17T04:09:04.277Z,12.83
2018-04-17T04:11:31.942Z,12.70
2018-04-17T04:13:59.573Z,12.03
2018-04-17T04:16:39.965Z,11.23
2018-04-17T04:19:19.419Z,11.70
2018-04-17T04:21:59.660Z,12.77
2018-04-17T04:24:39.296Z,12.10
2018-04-17T04:27:06.978Z,10.87
2018-04-17T04:29:34.603Z,12.33
2018-04-17T04:32:03.056Z,12.00
2018-04-17T04:34:31.461Z,12.00
2018-04-17T04:36:59.886Z,11.37
2018-04-17T04:39:30.690Z,12.13
2018-04-17T04:41:59.085Z,13.07
2018-04-17T04:44:26.720Z,12.97
2018-04-17T04:46:55.084Z,14.13
2018-04-17T04:49:23.521Z,15.00
2018-04-17T04:51:51.924Z,13.77
2018-04-17T04:54:20.330Z,12.87
2018-04-17T04:56:48.792Z,13.43
2018-04-17T04:59:16.417Z,12.43
2018-04-17T05:01:44.873Z,13.30
2018-04-17T05:04:12.522Z,12.83
2018-04-17T05:06:40.933Z,12.73
2018-04-17T05:09:08.555Z,12.63
2018-04-17T05:11:36.979Z,12.13
2018-04-17T05:14:04.669Z,13.37
2018-04-17T05:16:32.326Z,13.10
2018-04-17T05:18:59.946Z,13.67
2018-04-17T05:21:27.609Z,14.53
2018-04-17T05:23:55.302Z,13.97
2018-04-17T05:26:23.737Z,14.83
2018-04-17T05:28:51.450Z,14.87
2018-04-17T05:31:19.854Z,15.77
2018-04-17T05:33:48.276Z,16.63
2018-04-17T05:36:15.923Z,16.37
2018-04-17T05:38:43.561Z,15.87
2018-04-17T05:41:11.173Z,16.77
2018-04-17T05:43:38.797Z,17.87
2018-04-17T05:46:07.161Z,17.67
2018-04-17T05:48:34.814Z,17.13
2018-04-17T05:51:02.449Z,19.10
2018-04-17T05:53:30.133Z,19.47
2018-04-17T05:55:57.888Z,20.10
2018-04-17T05:58:25.494Z,21.77
2018-04-17T06:00:53.137Z,21.10
2018-04-17T06:03:21.577Z,25.37
2018-04-17T06:05:49.258Z,25.47
2018-04-17T06:08:16.922Z,26.60
2018-04-17T06:10:44.554Z,25.17
2018-04-17T06:13:12.203Z,25.87
2018-04-17T06:15:39.870Z,25.33
2018-04-17T06:18:08.283Z,26.73
2018-04-17T06:20:35.981Z,24.80
2018-04-17T06:23:03.629Z,23.13
2018-04-17T06:25:32.055Z,23.57
2018-04-17T06:27:59.688Z,24.60
2018-04-17T06:30:27.339Z,23.77
2018-04-17T06:32:54.984Z,24.53
2018-04-17T06:35:22.631Z,21.07
2018-04-17T06:37:50.312Z,19.07
2018-04-17T06:40:17.934Z,15.53
2018-04-17T06:42:45.610Z,13.97
2018-04-17T06:45:13.260Z,15.17
2018-04-17T06:47:41.723Z,14.07
2018-04-17T06:50:09.387Z,16.43
2018-04-17T06:52:37.036Z,14.57
2018-04-17T06:55:04.743Z,15.47
2018-04-17T06:57:32.821Z,18.57
2018-04-17T07:00:01.274Z,17.80
2018-04-17T07:02:28.930Z,18.97
2018-04-17T07:04:56.590Z,20.13
2018-04-17T07:07:25.001Z,18.57
2018-04-17T07:09:53.431Z,18.60
2018-04-17T07:12:21.053Z,19.60
2018-04-17T07:14:48.714Z,19.13
2018-04-17T07:17:16.373Z,19.40
2018-04-17T07:19:44.013Z,18.20
2018-04-17T07:22:11.655Z,18.77
2018-04-17T07:24:39.285Z,17.93
2018-04-17T07:27:06.953Z,18.73
2018-04-17T07:29:34.588Z,18.17
2018-04-17T07:32:03.024Z,17.87
2018-04-17T07:34:30.658Z,17.77
2018-04-17T07:37:08.190Z,18.53
2018-04-17T07:39:35.879Z,18.47
2018-04-17T07:42:03.513Z,17.67
2018-04-17T07:44:31.170Z,17.83
2018-04-17T07:47:11.398Z,17.00
2018-04-17T07:49:39.829Z,18.63
2018-04-17T07:52:07.441Z,17.97
2018-04-17T07:54:35.882Z,18.73
2018-04-17T07:57:03.517Z,18.27
2018-04-17T07:59:31.169Z,17.83
2018-04-17T08:01:58.802Z,18.67
2018-04-17T08:04:27.316Z,17.37
2018-04-17T08:06:54.986Z,16.93
2018-04-17T08:09:23.378Z,17.70
2018-04-17T08:11:51.110Z,17.60
2018-04-17T08:14:19.514Z,17.60
2018-04-17T08:16:47.157Z,18.73
2018-04-17T08:19:14.814Z,19.13
2018-04-17T08:21:42.466Z,17.57
2018-04-17T08:24:10.130Z,19.10
2018-04-17T08:26:38.549Z,19.53
2018-04-17T08:29:06.249Z,18.53
2018-04-17T08:31:33.893Z,18.17
2018-04-17T08:34:01.642Z,18.17
2018-04-17T08:36:29.308Z,17.90
2018-04-17T08:38:56.938Z,19.93
2018-04-17T08:41:24.606Z,18.60
2018-04-17T08:43:52.265Z,18.83
2018-04-17T08:46:19.921Z,19.17
2018-04-17T08:48:47.567Z,18.93
2018-04-17T08:51:15.263Z,18.97
2018-04-17T08:53:42.902Z,19.27
2018-04-17T08:56:11.373Z,19.23
2018-04-17T08:58:39.060Z,19.40
2018-04-17T09:01:06.709Z,19.53
2018-04-17T09:03:34.375Z,20.70
2018-04-17T09:06:02.797Z,20.03
2018-04-17T09:08:30.459Z,19.60
2018-04-17T09:10:58.882Z,21.03
2018-04-17T09:13:26.523Z,21.80
2018-04-17T09:15:54.168Z,21.27
2018-04-17T09:18:21.826Z,19.60
2018-04-17T09:20:50.207Z,18.33
2018-04-17T09:23:17.907Z,15.90
2018-04-17T09:25:46.403Z,19.13
2018-04-17T09:28:14.030Z,16.30
2018-04-17T09:30:41.702Z,14.83
2018-04-17T09:33:09.329Z,14.07
2018-04-17T09:35:36.992Z,15.77
2018-04-17T09:38:04.663Z,16.23
2018-04-17T09:40:32.334Z,17.90
2018-04-17T09:43:00.742Z,15.20
2018-04-17T09:45:29.179Z,14.40
2018-04-17T09:47:56.873Z,14.10
2018-04-17T09:50:24.497Z,13.87
2018-04-17T09:52:52.174Z,13.37
2018-04-17T09:55:19.824Z,14.10
2018-04-17T09:57:47.494Z,14.97
2018-04-17T10:00:15.193Z,14.97
2018-04-17T10:02:42.901Z,12.90
2018-04-17T10:05:10.552Z,13.63
2018-04-17T10:07:38.209Z,12.73
2018-04-17T10:10:05.853Z,12.30
2018-04-17T10:12:33.494Z,11.07
2018-04-17T10:15:01.927Z,14.30
2018-04-17T10:17:29.560Z,14.20
2018-04-17T10:19:57.235Z,12.90
2018-04-17T10:22:24.881Z,11.87
2018-04-17T10:24:52.551Z,13.10
2018-04-17T10:27:20.959Z,13.07
2018-04-17T10:29:49.407Z,14.40
2018-04-17T10:32:17.110Z,14.10
2018-04-17T10:34:44.754Z,14.17
2018-04-17T10:37:12.405Z,14.47
2018-04-17T10:39:40.080Z,14.23
2018-04-17T10:42:07.778Z,13.73
2018-04-17T10:44:35.422Z,13.70
2018-04-17T10:47:03.102Z,13.50
2018-04-17T10:49:30.742Z,13.63
2018-04-17T10:51:58.378Z,12.40
2018-04-17T10:54:26.081Z,10.67
2018-04-17T10:56:53.749Z,7.60
2018-04-17T10:59:21.409Z,7.30
2018-04-17T11:01:49.801Z,9.10
2018-04-17T11:04:18.236Z,8.90
2018-04-17T11:06:45.938Z,9.03
2018-04-17T11:09:13.575Z,6.73
2018-04-17T11:11:41.224Z,7.37
2018-04-17T11:14:08.851Z,8.00
2018-04-17T11:16:36.525Z,8.87
2018-04-17T11:19:04.193Z,6.87
2018-04-17T11:21:31.827Z,7.40
2018-04-17T11:24:00.249Z,7.93
2018-04-17T11:26:27.861Z,10.17
2018-04-17T11:28:55.537Z,8.23
2018-04-17T11:31:23.183Z,7.03
2018-04-17T11:33:50.817Z,7.70
2018-04-17T11:36:18.477Z,6.50
2018-04-17T11:38:46.122Z,10.63
2018-04-17T11:41:13.763Z,6.13
2018-04-17T11:43:41.381Z,5.67
2018-04-17T11:46:09.038Z,5.53
2018-04-17T11:48:36.677Z,5.47
2018-04-17T11:51:04.305Z,6.53
2018-04-17T11:53:31.951Z,5.67
2018-04-17T11:55:59.590Z,7.13
2018-04-17T11:58:27.258Z,6.57
2018-04-17T12:00:54.977Z,6.07
2018-04-17T12:03:22.658Z,7.30
2018-04-17T12:05:50.341Z,5.77
2018-04-17T12:08:17.953Z,7.10
2018-04-17T12:10:45.617Z,6.67
2018-04-17T12:13:13.277Z,6.77
2018-04-17T12:15:41.662Z,5.07
2018-04-17T12:18:10.076Z,5.17
2018-04-17T12:20:38.468Z,6.67
2018-04-17T12:23:06.153Z,6.60
2018-04-17T12:25:34.193Z,8.20
2018-04-17T12:28:01.812Z,6.77
2018-04-17T12:30:29.436Z,6.50
2018-04-17T12:32:57.847Z,8.30
2018-04-17T12:35:25.512Z,6.60
2018-04-17T12:37:53.932Z,6.47
2018-04-17T12:40:22.340Z,7.13
2018-04-17T12:42:50.801Z,5.50
2018-04-17T12:45:18.646Z,7.37
2018-04-17T12:47:46.302Z,6.17
2018-04-17T12:50:13.986Z,5.80
2018-04-17T12:52:41.606Z,5.93
2018-04-17T12:55:09.278Z,5.20
2018-04-17T12:57:37.683Z,4.60
2018-04-17T13:00:05.392Z,5.30
2018-04-17T13:02:33.045Z,6.47
2018-04-17T13:05:00.663Z,7.53
2018-04-17T13:07:28.317Z,5.63
2018-04-17T13:09:56.778Z,6.17
2018-04-17T13:12:24.432Z,6.20
2018-04-17T13:14:52.060Z,5.53
2018-04-17T13:17:20.492Z,5.03
2018-04-17T13:19:48.128Z,8.07
2018-04-17T13:22:16.755Z,5.20
2018-04-17T13:24:44.424Z,7.13
2018-04-17T13:27:12.117Z,4.73
2018-04-17T13:29:39.810Z,6.37
2018-04-17T13:32:07.433Z,6.03
2018-04-17T13:34:35.078Z,6.23
2018-04-17T13:37:02.737Z,6.17
2018-04-17T13:39:31.171Z,5.03
2018-04-17T13:41:59.116Z,4.70
2018-04-17T13:44:26.773Z,4.00
2018-04-17T13:46:54.895Z,4.07
2018-04-17T13:49:22.558Z,8.10
2018-04-17T13:51:50.455Z,4.57
2018-04-17T13:54:18.922Z,3.73
2018-04-17T13:56:46.676Z,5.20
2018-04-17T13:59:15.266Z,4.13
2018-04-17T14:01:42.918Z,3.20
2018-04-17T14:04:10.605Z,4.73
2018-04-17T14:06:38.857Z,4.80
2018-04-17T14:09:06.524Z,4.87
2018-04-17T14:11:34.251Z,3.40
2018-04-17T14:14:02.674Z,4.20
2018-04-17T14:16:30.543Z,4.27
2018-04-17T14:18:58.225Z,4.90
2018-04-17T14:21:26.649Z,5.70
2018-04-17T14:23:54.490Z,5.30
2018-04-17T14:26:22.185Z,6.63
2018-04-17T14:28:56.224Z,3.90
2018-04-17T14:31:24.213Z,4.17
2018-04-17T14:33:51.841Z,5.90
2018-04-17T14:36:19.720Z,4.80
2018-04-17T14:38:47.668Z,4.80
2018-04-17T14:41:15.568Z,4.17
2018-04-17T14:43:43.612Z,4.17
2018-04-17T14:46:11.510Z,3.20
2018-04-17T14:48:39.494Z,5.20
2018-04-17T14:54:18.990Z,5.97
2018-04-17T14:56:46.931Z,4.00
2018-04-17T14:59:14.834Z,4.07
2018-04-17T15:01:42.784Z,6.73
2018-04-17T15:04:10.649Z,5.60
2018-04-17T15:06:39.592Z,7.50
2018-04-17T15:09:07.553Z,4.27
2018-04-17T15:11:36.509Z,4.10
2018-04-17T15:14:04.421Z,6.77
2018-04-17T15:16:32.372Z,4.10
2018-04-17T15:19:00.278Z,5.23
2018-04-17T15:21:28.252Z,6.20
2018-04-17T15:23:56.239Z,5.00
2018-04-17T15:26:24.909Z,3.83
2018-04-17T15:28:52.815Z,4.27
2018-04-17T15:31:20.673Z,3.50
2018-04-17T15:33:48.624Z,3.73
2018-04-17T15:36:17.105Z,3.63
2018-04-17T15:38:45.875Z,3.33
2018-04-17T15:41:13.786Z,5.27
2018-04-17T15:43:42.458Z,3.73
2018-04-17T15:46:10.325Z,7.43
2018-04-17T15:48:38.236Z,3.30
2018-04-17T15:51:06.922Z,4.07
2018-04-17T15:53:34.822Z,4.83
2018-04-17T15:56:02.776Z,2.60
2018-04-17T15:58:30.702Z,2.40
2018-04-17T16:00:58.639Z,3.07
2018-04-17T16:03:26.545Z,4.40
2018-04-17T16:05:54.503Z,4.30
2018-04-17T16:08:22.404Z,3.57
2018-04-17T16:10:50.392Z,2.90
2018-04-17T16:13:19.023Z,5.03
2018-04-17T16:15:47.121Z,3.83
2018-04-17T16:18:15.541Z,4.63
2018-04-17T16:20:43.474Z,3.13
2018-04-17T16:23:11.433Z,4.03
2018-04-17T16:25:39.351Z,3.83
2018-04-17T16:28:07.293Z,4.40
2018-04-17T16:30:35.228Z,5.53
2018-04-17T16:33:03.171Z,7.93
2018-04-17T16:35:31.077Z,5.30
2018-04-17T16:37:59.006Z,5.53
2018-04-17T16:40:27.002Z,4.37
2018-04-17T16:42:54.884Z,4.00
2018-04-17T16:45:22.809Z,4.93
2018-04-17T16:47:50.738Z,4.80
2018-04-17T16:50:19.721Z,3.43
2018-04-17T16:52:48.378Z,3.60
2018-04-17T16:55:17.383Z,5.00
2018-04-17T16:57:46.681Z,4.13
2018-04-17T17:00:14.609Z,4.80
2018-04-17T17:03:07.814Z,3.60
2018-04-17T17:05:36.524Z,3.67
2018-04-17T17:08:04.440Z,2.97
2018-04-17T17:10:32.403Z,3.07
2018-04-17T17:13:00.333Z,3.40
2018-04-17T17:15:28.213Z,4.87
2018-04-17T17:17:56.128Z,3.80
2018-04-17T17:20:24.816Z,3.43
2018-04-17T17:22:53.534Z,4.67
2018-04-17T17:25:21.177Z,2.93
2018-04-17T17:27:49.576Z,4.47
2018-04-17T17:30:17.997Z,4.13
2018-04-17T17:32:45.641Z,8.60
2018-04-17T17:35:13.345Z,13.93
2018-04-17T17:37:41.006Z,9.60
2018-04-17T17:40:30.400Z,5.57
2018-04-17T17:42:58.721Z,4.50
2018-04-17T17:45:26.478Z,4.00
2018-04-17T17:48:09.071Z,5.13
2018-04-17T17:50:36.751Z,7.20
2018-04-17T17:53:04.658Z,2.90
2018-04-17T17:55:32.415Z,3.30
2018-04-17T17:58:00.835Z,5.60
2018-04-17T18:00:28.508Z,2.40
2018-04-17T18:02:56.926Z,2.60
2018-04-17T18:05:24.537Z,2.63
2018-04-17T18:07:52.198Z,5.90
2018-04-17T18:10:20.639Z,6.40
2018-04-17T18:12:48.289Z,4.13
2018-04-17T18:15:15.986Z,3.50
2018-04-17T18:18:08.337Z,2.40
2018-04-17T18:20:35.977Z,2.40
2018-04-17T18:23:03.609Z,4.00
2018-04-17T18:25:31.293Z,3.67
2018-04-17T18:27:58.952Z,4.63
2018-04-17T18:30:26.626Z,3.87
2018-04-17T18:32:55.018Z,4.53
2018-04-17T18:35:22.703Z,5.53
2018-04-17T18:37:50.333Z,3.83
2018-04-17T18:40:17.997Z,4.93
2018-04-17T18:42:45.649Z,5.13
2018-04-17T18:45:13.287Z,3.63
2018-04-17T18:47:40.949Z,5.37
2018-04-17T18:50:08.593Z,5.97
2018-04-17T18:52:37.326Z,4.93
2018-04-17T18:55:05.512Z,6.90
2018-04-17T18:57:33.376Z,5.63
2018-04-17T19:00:01.003Z,3.70
2018-04-17T19:02:28.912Z,4.37
2018-04-17T19:05:11.548Z,3.73
2018-04-17T19:07:39.429Z,3.77
2018-04-17T19:10:11.081Z,5.80
2018-04-17T19:12:39.250Z,5.23
2018-04-17T19:15:06.938Z,6.07
2018-04-17T19:20:29.182Z,5.33
2018-04-17T19:22:57.603Z,6.33
2018-04-17T19:28:20.498Z,4.80
2018-04-17T19:30:48.273Z,3.77
2018-04-17T19:33:15.931Z,4.23
2018-04-17T19:35:43.888Z,4.53
2018-04-17T19:38:11.654Z,8.50
2018-04-17T19:40:39.389Z,4.60
2018-04-17T19:43:07.094Z,7.20
2018-04-17T19:48:49.162Z,5.47
2018-04-17T19:51:17.263Z,4.57
2018-04-17T19:53:45.825Z,4.20
2018-04-17T19:56:13.478Z,4.87
2018-04-17T19:58:41.093Z,4.63
2018-04-17T20:01:09.165Z,4.57
2018-04-17T20:03:36.793Z,6.80
2018-04-17T20:06:04.439Z,5.83
2018-04-17T20:08:32.243Z,6.37
2018-04-17T20:10:59.912Z,5.20
2018-04-17T20:13:27.641Z,4.43
2018-04-17T20:15:55.402Z,6.00
2018-04-17T20:18:23.070Z,6.17
2018-04-17T20:20:50.691Z,5.40
2018-04-17T20:23:18.386Z,5.40
2018-04-17T20:25:46.018Z,7.07
2018-04-17T20:28:14.534Z,5.80
2018-04-17T20:30:42.176Z,7.20
2018-04-17T20:33:09.813Z,6.13
2018-04-17T20:35:38.233Z,8.17
2018-04-17T20:38:06.115Z,6.13
2018-04-17T20:40:34.559Z,7.23
2018-04-17T20:43:02.231Z,6.73
2018-04-17T20:45:29.886Z,7.60
2018-04-17T20:47:57.494Z,7.37
2018-04-17T20:50:25.962Z,7.27
2018-04-17T20:52:53.989Z,5.23
2018-04-17T20:55:22.378Z,10.40
2018-04-17T20:57:50.029Z,7.47
2018-04-17T21:00:17.646Z,7.33
2018-04-17T21:02:45.294Z,6.70
2018-04-17T21:05:12.951Z,7.93
2018-04-17T21:07:40.615Z,7.70
2018-04-17T21:10:08.268Z,8.87
2018-04-17T21:15:30.165Z,7.80
2018-04-17T21:17:57.846Z,6.67
2018-04-17T21:20:25.666Z,7.07
2018-04-17T21:22:53.580Z,7.13
2018-04-17T21:25:21.376Z,7.77
2018-04-17T21:27:49.142Z,7.67
2018-04-17T21:30:16.854Z,6.20
2018-04-17T21:32:44.768Z,6.37
2018-04-17T21:35:12.689Z,7.47
2018-04-17T21:37:40.382Z,4.87
2018-04-17T21:40:07.994Z,5.70
2018-04-17T21:42:35.658Z,8.00
2018-04-17T21:45:03.301Z,5.63
2018-04-17T21:47:31.081Z,7.77
2018-04-17T21:49:58.732Z,4.70
2018-04-17T21:52:26.385Z,4.30
2018-04-17T21:54:54.821Z,3.63
2018-04-17T21:57:22.489Z,4.23
2018-04-17T21:59:50.890Z,3.63
2018-04-17T22:02:18.521Z,5.27
2018-04-17T22:04:46.184Z,5.00
2018-04-17T22:07:13.862Z,4.53
2018-04-17T22:09:41.497Z,4.13
2018-04-17T22:12:09.150Z,7.37
2018-04-17T22:14:36.784Z,6.40
2018-04-17T22:17:04.449Z,4.90
2018-04-17T22:19:32.106Z,5.80
2018-04-17T22:21:59.782Z,6.63
2018-04-17T22:24:28.323Z,4.90
2018-04-17T22:26:56.771Z,5.20
2018-04-17T22:29:24.433Z,6.07
2018-04-17T22:31:52.074Z,5.33
2018-04-17T22:34:20.485Z,5.70
2018-04-17T22:36:48.937Z,5.77
2018-04-17T22:39:16.573Z,5.87
2018-04-17T22:41:44.981Z,6.47
2018-04-17T22:44:13.442Z,6.37
2018-04-17T22:46:41.127Z,6.70
2018-04-17T22:49:08.760Z,6.97
2018-04-17T22:51:37.226Z,6.63
2018-04-17T22:54:04.882Z,6.00
2018-04-17T22:56:32.588Z,6.00
2018-04-17T22:59:00.281Z,7.73
2018-04-17T23:01:27.907Z,6.37
2018-04-17T23:03:55.566Z,6.57
2018-04-17T23:06:23.189Z,7.30
2018-04-17T23:08:51.598Z,6.73
2018-04-17T23:11:19.970Z,7.63
2018-04-17T23:13:47.618Z,6.50
2018-04-17T23:16:15.255Z,7.83
2018-04-17T23:18:42.900Z,6.00
2018-04-17T23:21:10.557Z,5.83
2018-04-17T23:23:38.945Z,6.43
2018-04-17T23:26:06.609Z,6.67
2018-04-17T23:28:34.364Z,6.30
2018-04-17T23:31:02.066Z,6.33
2018-04-17T23:33:29.737Z,6.30
2018-04-17T23:35:57.357Z,6.17
2018-04-17T23:38:25.031Z,7.13
2018-04-17T23:40:52.641Z,6.53
2018-04-17T23:43:20.328Z,7.23
2018-04-17T23:45:47.985Z,6.20
2018-04-17T23:48:15.639Z,5.77
2018-04-17T23:50:43.305Z,6.87
2018-04-17T23:53:11.704Z,7.03
2018-04-17T23:55:39.424Z,7.00
2018-04-17T23:58:07.077Z,7.43
